createdAt,value
2018-12-31T00:02:09.061Z,100989.52
2018-12-31T00:04:38.148Z,100980.78
2018-12-31T00:07:06.836Z,100981.56
2018-12-31T00:09:35.852Z,100980.98
2018-12-31T00:12:04.536Z,100976.77
2018-12-31T00:17:20.979Z,100971.77
2018-12-31T00:20:08.989Z,100972.22
2018-12-31T00:22:37.693Z,100969.04
2018-12-31T00:25:06.390Z,100968.73
2018-12-31T00:27:35.172Z,100963.98
2018-12-31T00:30:03.867Z,100956.36
2018-12-31T00:32:51.745Z,100964.97
2018-12-31T00:35:20.432Z,100964.61
2018-12-31T00:37:49.123Z,100966.17
2018-12-31T00:40:17.816Z,100959.47
2018-12-31T00:42:46.804Z,100957.52
2018-12-31T00:45:15.508Z,100961.47
2018-12-31T00:48:03.434Z,100957.02
2018-12-31T00:50:32.121Z,100956.68
2018-12-31T00:53:01.152Z,100955.06
2018-12-31T00:55:29.916Z,100956.83
2018-12-31T00:58:18.077Z,100956.00
2018-12-31T01:01:26.522Z,100959.75
2018-12-31T01:03:55.223Z,100956.14
2018-12-31T01:06:23.916Z,100944.72
2018-12-31T01:09:11.965Z,100954.91
2018-12-31T01:11:40.664Z,100954.91
2018-12-31T01:14:09.376Z,100950.63
2018-12-31T01:16:57.380Z,100956.19
2018-12-31T01:22:19.927Z,100953.80
2018-12-31T01:27:23.848Z,100962.44
2018-12-31T01:32:26.927Z,100960.23
2018-12-31T01:37:30.299Z,100959.77
2018-12-31T01:40:18.333Z,100964.45
2018-12-31T01:43:06.213Z,100958.05
2018-12-31T01:45:54.220Z,100966.27
2018-12-31T01:48:22.929Z,100964.16
2018-12-31T01:50:51.623Z,100959.86
2018-12-31T01:53:20.666Z,100955.80
2018-12-31T01:55:49.367Z,100953.50
2018-12-31T01:58:37.410Z,100955.89
2018-12-31T02:01:06.100Z,100946.59
2018-12-31T02:03:34.795Z,100948.20
2018-12-31T02:06:03.494Z,100950.78
2018-12-31T02:08:32.184Z,100951.58
2018-12-31T02:13:35.299Z,100951.05
2018-12-31T02:16:23.306Z,100944.16
2018-12-31T02:18:51.997Z,100945.80
2018-12-31T02:21:20.703Z,100943.30
2018-12-31T02:23:49.713Z,100933.62
2018-12-31T02:29:13.461Z,100945.94
2018-12-31T02:31:42.253Z,100945.98
2018-12-31T02:34:11.041Z,100943.89
2018-12-31T02:36:58.927Z,100952.73
2018-12-31T02:39:47.087Z,100947.79
2018-12-31T02:42:35.108Z,100945.30
2018-12-31T02:47:38.952Z,100939.38
2018-12-31T02:50:27.246Z,100938.88
2018-12-31T02:52:55.969Z,100941.63
2018-12-31T02:55:24.891Z,100940.02
2018-12-31T02:57:53.770Z,100940.99
2018-12-31T03:00:41.769Z,100935.66
2018-12-31T03:03:10.753Z,100944.32
2018-12-31T03:08:48.197Z,100945.09
2018-12-31T03:11:16.882Z,100938.84
2018-12-31T03:14:04.977Z,100939.06
2018-12-31T03:16:53.080Z,100941.37
2018-12-31T03:22:35.296Z,100943.58
2018-12-31T03:25:04.189Z,100940.31
2018-12-31T03:33:16.433Z,100934.52
2018-12-31T03:35:45.123Z,100936.56
2018-12-31T03:38:33.156Z,100932.48
2018-12-31T03:41:21.062Z,100938.10
2018-12-31T03:46:24.463Z,100936.34
2018-12-31T03:48:53.164Z,100941.40
2018-12-31T03:51:41.311Z,100936.16
2018-12-31T03:54:30.125Z,100930.66
2018-12-31T03:57:38.579Z,100934.77
2018-12-31T04:00:07.693Z,100929.82
2018-12-31T04:02:55.596Z,100926.26
2018-12-31T04:05:43.537Z,100914.83
2018-12-31T04:08:31.660Z,100916.62
2018-12-31T04:11:19.784Z,100913.55
2018-12-31T04:13:48.668Z,100916.80
2018-12-31T04:16:36.509Z,100914.33
2018-12-31T04:19:24.405Z,100917.16
2018-12-31T04:22:12.241Z,100918.92
2018-12-31T04:25:00.278Z,100916.14
2018-12-31T04:30:05.236Z,100916.05
2018-12-31T04:32:34.029Z,100923.03
2018-12-31T04:37:56.407Z,100916.25
2018-12-31T04:40:44.545Z,100916.48
2018-12-31T04:43:32.533Z,100915.44
2018-12-31T04:48:55.152Z,100910.65
2018-12-31T04:54:17.714Z,100911.47
2018-12-31T04:56:46.602Z,100910.98
2018-12-31T04:59:34.499Z,100918.90
2018-12-31T05:02:22.624Z,100922.27
2018-12-31T05:05:10.745Z,100918.95
2018-12-31T05:07:58.880Z,100919.46
2018-12-31T05:10:27.710Z,100913.82
2018-12-31T05:13:15.792Z,100912.66
2018-12-31T05:16:03.853Z,100915.70
2018-12-31T05:21:06.732Z,100927.25
2018-12-31T05:23:35.424Z,100928.36
2018-12-31T05:26:23.506Z,100932.66
2018-12-31T05:35:14.757Z,100940.31
2018-12-31T05:40:37.472Z,100939.52
2018-12-31T05:43:25.489Z,100937.27
2018-12-31T05:46:13.491Z,100939.34
2018-12-31T05:48:42.487Z,100934.71
2018-12-31T05:51:51.024Z,100937.14
2018-12-31T05:56:54.442Z,100941.14
2018-12-31T06:02:36.107Z,100952.48
2018-12-31T06:07:39.430Z,100958.91
2018-12-31T06:12:43.071Z,100963.87
2018-12-31T06:15:24.156Z,100958.86
2018-12-31T06:17:52.874Z,100959.80
2018-12-31T06:20:41.086Z,100964.05
2018-12-31T06:28:52.692Z,100963.70
2018-12-31T06:32:01.313Z,100961.83
2018-12-31T06:34:49.066Z,100952.25
2018-12-31T06:37:37.085Z,100961.41
2018-12-31T06:40:06.301Z,100968.94
2018-12-31T06:42:54.356Z,100965.47
2018-12-31T06:45:23.711Z,100961.12
2018-12-31T06:47:52.816Z,100960.58
2018-12-31T06:50:21.500Z,100965.02
2018-12-31T06:53:09.389Z,100965.74
2018-12-31T06:55:57.505Z,100970.48
2018-12-31T06:58:26.429Z,100973.73
2018-12-31T07:01:14.345Z,100978.51
2018-12-31T07:03:43.371Z,100967.21
2018-12-31T07:06:12.134Z,100975.13
2018-12-31T07:09:20.631Z,100971.63
2018-12-31T07:12:08.652Z,100978.80
2018-12-31T07:14:56.726Z,100980.60
2018-12-31T07:18:05.541Z,100982.87
2018-12-31T07:20:34.291Z,100989.42
2018-12-31T07:23:02.982Z,100992.12
2018-12-31T07:25:31.955Z,100993.53
2018-12-31T07:28:20.029Z,100993.59
2018-12-31T07:33:23.619Z,101002.39
2018-12-31T07:38:45.953Z,100998.47
2018-12-31T07:41:33.994Z,101003.81
2018-12-31T07:44:03.179Z,101004.64
2018-12-31T07:46:51.410Z,101008.52
2018-12-31T07:52:28.607Z,101013.64
2018-12-31T07:55:16.607Z,101013.91
2018-12-31T07:57:45.353Z,101014.95
2018-12-31T08:03:40.350Z,101025.51
2018-12-31T08:06:09.166Z,101030.16
2018-12-31T08:08:57.217Z,101029.61
2018-12-31T08:14:34.507Z,101034.94
2018-12-31T08:17:03.299Z,101038.56
2018-12-31T08:19:51.529Z,101034.11
2018-12-31T08:22:20.393Z,101039.12
2018-12-31T08:25:08.327Z,101037.74
2018-12-31T08:27:56.341Z,101034.98
2018-12-31T08:31:05.500Z,101031.70
2018-12-31T08:33:34.317Z,101043.00
2018-12-31T08:42:11.967Z,101042.94
2018-12-31T08:48:08.404Z,101044.05
2018-12-31T08:50:37.357Z,101042.54
2018-12-31T08:53:25.339Z,101040.79
2018-12-31T09:01:37.674Z,101044.58
2018-12-31T09:04:26.150Z,101050.62
2018-12-31T09:07:14.707Z,101054.73
2018-12-31T09:09:43.754Z,101050.98
2018-12-31T09:12:31.614Z,101054.36
2018-12-31T09:15:41.586Z,101061.77
2018-12-31T09:18:29.612Z,101067.94
2018-12-31T09:21:18.062Z,101069.13
2018-12-31T09:23:46.907Z,101068.75
2018-12-31T09:26:34.766Z,101068.48
2018-12-31T09:29:03.477Z,101069.55
2018-12-31T09:31:32.606Z,101064.14
2018-12-31T09:34:01.443Z,101072.59
2018-12-31T09:36:30.173Z,101083.09
2018-12-31T09:38:59.017Z,101084.85
2018-12-31T09:41:27.833Z,101078.30
2018-12-31T09:46:49.954Z,101078.39
2018-12-31T09:49:19.246Z,101077.06
2018-12-31T09:52:07.858Z,101078.13
2018-12-31T09:54:55.991Z,101076.06
2018-12-31T09:57:24.723Z,101078.91
2018-12-31T10:02:28.287Z,101077.52
2018-12-31T10:04:57.660Z,101082.25
2018-12-31T10:07:26.760Z,101083.44
2018-12-31T10:09:58.121Z,101082.44
2018-12-31T10:12:46.181Z,101081.33
2018-12-31T10:15:14.897Z,101076.33
2018-12-31T10:18:03.241Z,101075.66
2018-12-31T10:21:11.807Z,101079.16
2018-12-31T10:23:59.920Z,101078.59
2018-12-31T10:29:37.153Z,101078.44
2018-12-31T10:32:24.942Z,101076.09
2018-12-31T10:34:53.709Z,101071.37
2018-12-31T10:37:41.812Z,101068.05
2018-12-31T10:40:10.940Z,101072.48
2018-12-31T10:42:39.730Z,101073.23
2018-12-31T10:45:08.570Z,101071.45
2018-12-31T10:47:37.385Z,101062.91
2018-12-31T10:50:45.904Z,101065.95
2018-12-31T10:53:54.962Z,101055.22
2018-12-31T10:56:23.751Z,101046.21
2018-12-31T11:01:46.482Z,101055.45
2018-12-31T11:07:29.292Z,101042.67
2018-12-31T11:10:19.192Z,101040.69
2018-12-31T11:13:07.092Z,101038.84
2018-12-31T11:16:15.678Z,101031.92
2018-12-31T11:18:44.585Z,101035.27
2018-12-31T11:21:13.385Z,101031.47
2018-12-31T11:26:36.073Z,101022.63
2018-12-31T11:29:24.121Z,101018.64
2018-12-31T11:31:52.909Z,101019.07
2018-12-31T11:34:21.947Z,101013.33
2018-12-31T11:37:10.027Z,101015.31
2018-12-31T11:39:38.742Z,101011.06
2018-12-31T11:42:27.406Z,101009.89
2018-12-31T11:44:56.403Z,101009.95
2018-12-31T11:47:44.713Z,101006.61
2018-12-31T11:50:32.837Z,101001.72
2018-12-31T11:56:16.482Z,100987.28
2018-12-31T11:59:25.615Z,100990.81
2018-12-31T12:01:55.671Z,100981.14
2018-12-31T12:04:24.995Z,100980.27
2018-12-31T12:06:53.723Z,100980.94
2018-12-31T12:09:41.736Z,100983.80
2018-12-31T12:15:23.112Z,100981.24
2018-12-31T12:18:32.452Z,100976.88
2018-12-31T12:21:13.344Z,100970.30
2018-12-31T12:24:02.095Z,100967.53
2018-12-31T12:26:50.101Z,100976.24
2018-12-31T12:29:38.386Z,100967.58
2018-12-31T12:38:09.203Z,100965.90
2018-12-31T12:40:57.004Z,100957.33
2018-12-31T12:43:45.046Z,100952.66
2018-12-31T12:46:36.665Z,100955.27
2018-12-31T12:49:07.195Z,100955.86
2018-12-31T12:51:55.380Z,100944.27
2018-12-31T13:00:07.224Z,100948.03
2018-12-31T13:02:55.360Z,100950.80
2018-12-31T13:05:45.178Z,100948.87
2018-12-31T13:08:33.098Z,100949.39
2018-12-31T13:11:02.207Z,100956.61
2018-12-31T13:13:50.257Z,100949.77
2018-12-31T13:16:19.233Z,100954.63
2018-12-31T13:18:48.079Z,100948.75
2018-12-31T13:23:51.950Z,100949.77
2018-12-31T13:29:35.309Z,100952.86
2018-12-31T13:32:23.236Z,100950.47
2018-12-31T13:34:52.316Z,100957.44
2018-12-31T13:37:40.442Z,100949.27
2018-12-31T13:40:09.325Z,100948.80
2018-12-31T13:45:54.706Z,100949.42
2018-12-31T13:48:42.749Z,100956.58
2018-12-31T13:51:31.116Z,100961.34
2018-12-31T13:56:53.665Z,100955.84
2018-12-31T13:59:22.453Z,100964.55
2018-12-31T14:01:51.167Z,100955.88
2018-12-31T14:04:19.946Z,100951.87
2018-12-31T14:06:48.647Z,100961.47
2018-12-31T14:09:17.377Z,100964.99
2018-12-31T14:11:46.097Z,100955.63
2018-12-31T14:14:14.878Z,100957.17
2018-12-31T14:16:43.722Z,100962.48
2018-12-31T14:19:12.786Z,100962.91
2018-12-31T14:22:00.808Z,100969.93
2018-12-31T14:27:43.188Z,100963.63
2018-12-31T14:30:31.197Z,100968.47
2018-12-31T14:32:59.943Z,100963.83
2018-12-31T14:35:29.330Z,100972.45
2018-12-31T14:38:17.735Z,100969.02
2018-12-31T14:40:46.495Z,100974.97
2018-12-31T14:43:54.982Z,100979.16
2018-12-31T14:46:23.771Z,100976.99
2018-12-31T14:51:46.831Z,100981.74
2018-12-31T14:54:34.895Z,100979.16
2018-12-31T15:00:54.531Z,100979.90
2018-12-31T15:03:23.393Z,100981.61
2018-12-31T15:09:19.561Z,100985.31
2018-12-31T15:17:37.968Z,100996.96
2018-12-31T15:23:16.070Z,100991.45
2018-12-31T15:25:58.659Z,100987.69
2018-12-31T15:31:03.522Z,100994.61
2018-12-31T15:33:32.212Z,100996.66
2018-12-31T15:36:20.291Z,100998.47
2018-12-31T15:41:59.124Z,100996.63
2018-12-31T15:45:09.901Z,100998.08
2018-12-31T15:50:12.456Z,100996.02
2018-12-31T15:53:00.487Z,101004.20
2018-12-31T15:55:55.149Z,101001.64
2018-12-31T15:58:43.352Z,101006.56
2018-12-31T16:01:31.357Z,101009.44
2018-12-31T16:04:40.616Z,101012.09
2018-12-31T16:07:29.526Z,101018.64
2018-12-31T16:10:17.420Z,101020.62
2018-12-31T16:13:05.529Z,101016.06
2018-12-31T16:15:53.419Z,101016.87
2018-12-31T16:18:23.834Z,101018.66
2018-12-31T16:20:52.534Z,101020.86
2018-12-31T16:23:21.229Z,101030.08
2018-12-31T16:26:09.223Z,101026.00
2018-12-31T16:28:37.936Z,101024.48
2018-12-31T16:31:06.627Z,101022.99
2018-12-31T16:33:54.518Z,101016.45
2018-12-31T16:36:42.523Z,101017.75
2018-12-31T16:39:30.437Z,101019.14
2018-12-31T16:41:59.130Z,101019.00
2018-12-31T16:44:27.938Z,101024.28
2018-12-31T16:47:15.848Z,101023.66
2018-12-31T16:49:44.534Z,101032.56
2018-12-31T16:52:32.604Z,101024.83
2018-12-31T17:00:42.791Z,101025.06
2018-12-31T17:03:11.497Z,101021.23
2018-12-31T17:05:59.494Z,101019.55
2018-12-31T17:08:28.229Z,101019.09
2018-12-31T17:10:56.909Z,101018.53
2018-12-31T17:13:25.594Z,101021.50
2018-12-31T17:16:13.644Z,101021.97
2018-12-31T17:19:01.601Z,101026.56
2018-12-31T17:21:49.602Z,101017.16
2018-12-31T17:24:18.380Z,101023.94
2018-12-31T17:26:59.479Z,101024.58
2018-12-31T17:29:47.561Z,101025.95
2018-12-31T17:32:16.260Z,101031.83
2018-12-31T17:37:38.301Z,101028.11
2018-12-31T17:40:26.411Z,101022.00
2018-12-31T17:42:55.197Z,101025.55
2018-12-31T17:45:24.202Z,101028.45
2018-12-31T17:47:52.901Z,101026.62
2018-12-31T17:50:41.005Z,101033.06
2018-12-31T17:53:29.965Z,101029.83
2018-12-31T17:58:57.971Z,101029.72
2018-12-31T18:01:26.679Z,101030.76
2018-12-31T18:03:55.382Z,101027.20
2018-12-31T18:06:24.080Z,101031.30
2018-12-31T18:08:52.768Z,101024.36
2018-12-31T18:11:21.481Z,101021.83
2018-12-31T18:14:09.732Z,101021.82
2018-12-31T18:16:38.831Z,101031.66
2018-12-31T18:19:07.811Z,101021.33
2018-12-31T18:21:57.559Z,101024.64
2018-12-31T18:24:26.248Z,101026.08
2018-12-31T18:26:54.995Z,101021.22
2018-12-31T18:29:43.013Z,101034.56
2018-12-31T18:32:11.696Z,101027.89
2018-12-31T18:34:40.686Z,101035.78
2018-12-31T18:37:09.373Z,101030.80
2018-12-31T18:42:11.841Z,101036.13
2018-12-31T18:44:40.897Z,101037.08
2018-12-31T18:47:28.789Z,101029.83
2018-12-31T18:49:57.812Z,101035.38
2018-12-31T18:52:26.494Z,101038.48
2018-12-31T18:54:55.187Z,101029.22
2018-12-31T18:57:43.073Z,101034.31
2018-12-31T19:03:18.826Z,101037.42
2018-12-31T19:05:47.859Z,101039.48
2018-12-31T19:08:16.565Z,101039.93
2018-12-31T19:10:46.759Z,101036.78
2018-12-31T19:13:15.655Z,101040.59
2018-12-31T19:16:03.914Z,101042.34
2018-12-31T19:18:32.911Z,101040.07
2018-12-31T19:24:14.020Z,101033.93
2018-12-31T19:29:17.588Z,101038.42
2018-12-31T19:34:22.681Z,101023.73
2018-12-31T19:39:44.774Z,101016.69
2018-12-31T19:42:13.500Z,101015.61
2018-12-31T19:44:42.191Z,101014.48
2018-12-31T19:47:30.091Z,101015.86
2018-12-31T19:49:58.778Z,101014.88
2018-12-31T19:52:27.461Z,101017.49
2018-12-31T19:54:58.399Z,101014.11
2018-12-31T19:57:26.587Z,101014.39
2018-12-31T20:02:29.295Z,101013.75
2018-12-31T20:07:51.393Z,101012.98
2018-12-31T20:10:20.086Z,101021.84
2018-12-31T20:13:08.095Z,101021.55
2018-12-31T20:15:36.787Z,101022.70
2018-12-31T20:18:24.795Z,101014.09
2018-12-31T20:20:53.501Z,101018.45
2018-12-31T20:23:41.392Z,101014.98
2018-12-31T20:29:05.726Z,101015.70
2018-12-31T20:34:27.481Z,101006.01
2018-12-31T20:39:50.141Z,101005.63
2018-12-31T20:42:18.847Z,101002.66
2018-12-31T20:45:06.740Z,101006.81
2018-12-31T20:48:01.815Z,101010.09
2018-12-31T20:50:25.159Z,101005.98
2018-12-31T20:52:53.863Z,101000.36
2018-12-31T20:55:22.553Z,101002.19
2018-12-31T21:00:44.991Z,101001.58
2018-12-31T21:03:13.699Z,101001.14
2018-12-31T21:08:49.531Z,100994.53
2018-12-31T21:11:18.210Z,100991.56
2018-12-31T21:13:46.903Z,100987.91
2018-12-31T21:16:34.916Z,100989.77
2018-12-31T21:19:03.866Z,100993.89
2018-12-31T21:21:51.945Z,100987.91
2018-12-31T21:24:39.987Z,100991.88
2018-12-31T21:27:08.688Z,100996.22
2018-12-31T21:29:37.372Z,100991.21
2018-12-31T21:32:17.952Z,100987.48
2018-12-31T21:40:28.721Z,100985.36
2018-12-31T21:42:57.459Z,100990.09
2018-12-31T21:45:26.447Z,100992.20
2018-12-31T21:47:56.861Z,100985.59
2018-12-31T21:50:25.805Z,100983.08
2018-12-31T21:53:13.811Z,100984.50
2018-12-31T21:56:01.921Z,100986.38
2018-12-31T21:58:30.878Z,100976.67
2018-12-31T22:01:18.929Z,100977.19
2018-12-31T22:03:49.344Z,100976.92
2018-12-31T22:06:18.026Z,100980.98
2018-12-31T22:11:21.421Z,100970.58
2018-12-31T22:14:09.456Z,100962.87
2018-12-31T22:16:38.140Z,100964.81
2018-12-31T22:19:26.501Z,100964.62
2018-12-31T22:21:56.904Z,100960.19
2018-12-31T22:24:25.605Z,100965.91
2018-12-31T22:26:54.284Z,100961.89
2018-12-31T22:29:42.285Z,100958.97
2018-12-31T22:32:11.356Z,100965.20
2018-12-31T22:34:40.069Z,100971.91
2018-12-31T22:37:08.786Z,100964.52
2018-12-31T22:39:57.131Z,100966.19
2018-12-31T22:42:25.817Z,100964.69
2018-12-31T22:44:54.887Z,100965.94
2018-12-31T22:47:23.848Z,100960.87
2018-12-31T22:49:52.535Z,100961.17
2018-12-31T22:52:21.228Z,100967.83
2018-12-31T22:54:49.916Z,100955.25
2018-12-31T22:57:18.616Z,100952.03
2018-12-31T22:59:47.311Z,100952.23
2018-12-31T23:05:29.857Z,100953.16
2018-12-31T23:08:17.866Z,100953.47
2018-12-31T23:10:46.559Z,100959.47
2018-12-31T23:13:15.262Z,100960.98
2018-12-31T23:15:43.960Z,100955.86
2018-12-31T23:21:06.080Z,100949.59
2018-12-31T23:26:09.268Z,100936.16
2018-12-31T23:31:13.613Z,100940.73
2018-12-31T23:33:42.568Z,100939.71
2018-12-31T23:36:12.361Z,100941.15
2018-12-31T23:39:05.234Z,100937.55
2018-12-31T23:44:05.520Z,100937.19
2018-12-31T23:46:53.430Z,100940.27
2018-12-31T23:49:22.389Z,100932.81
2018-12-31T23:55:04.416Z,100935.75
